KSVE/SVE METAR and TAF weather

Enter ICAO airport designator
Station Type Date Time Source
KSVE METAR 2021/07/29 18:15 UTC NOAA

KSVE 291815Z AUTO 18004KT 10SM CLR 31/01 A3015 RMK AO2


Station Type Date Time Source
KSVE Decoded METAR 2021/07/29 18:15 UTC NOAA

Susanville Municipal, CA, United States (KSVE) 40-23N 120-34W
Jul 29, 2021 - 02:15 PM EDT / 2021.07.29 1815 UTC
Wind: from the S (180 degrees) at 5 MPH (4 KT):0
Visibility: 10 mile(s):0
Sky conditions: clear
Temperature: 87 F (31 C)
Dew Point: 33 F (1 C)
Relative Humidity: 14%
Pressure (altimeter): 30.15 in. Hg (1020 hPa)
ob: KSVE 291815Z AUTO 18004KT 10SM CLR 31/01 A3015 RMK AO2
cycle: 18

Station Type Date Time Source
KSVE TAF UTC NOAA

Error!

Example: see airport list